sensor_id;sensor_type;location;lat;lon;timestamp;pressure;altitude;pressure_sealevel;temperature;humidity
21290;BME280;10804;48.988;2.408;2022-07-05T00:00:09;101556.66;;;23.65;54.34
21290;BME280;10804;48.988;2.408;2022-07-05T00:02:39;101555.06;;;23.63;54.65
21290;BME280;10804;48.988;2.408;2022-07-05T00:05:08;101550.66;;;23.62;54.54
21290;BME280;10804;48.988;2.408;2022-07-05T00:07:35;101554.59;;;23.56;54.53
21290;BME280;10804;48.988;2.408;2022-07-05T00:10:04;101552.91;;;23.55;54.35
21290;BME280;10804;48.988;2.408;2022-07-05T00:12:32;101550.44;;;23.52;54.62
21290;BME280;10804;48.988;2.408;2022-07-05T00:15:03;101542.94;;;23.45;54.43
21290;BME280;10804;48.988;2.408;2022-07-05T00:17:30;101559.78;;;23.45;54.41
21290;BME280;10804;48.988;2.408;2022-07-05T00:19:57;101550.09;;;23.44;54.59
21290;BME280;10804;48.988;2.408;2022-07-05T00:22:26;101550.28;;;23.41;54.44
21290;BME280;10804;48.988;2.408;2022-07-05T00:24:54;101558.47;;;23.38;54.50
21290;BME280;10804;48.988;2.408;2022-07-05T00:27:21;101550.69;;;23.35;54.63
21290;BME280;10804;48.988;2.408;2022-07-05T00:29:48;101554.28;;;23.34;54.33
21290;BME280;10804;48.988;2.408;2022-07-05T00:32:16;101554.50;;;23.31;54.53
21290;BME280;10804;48.988;2.408;2022-07-05T00:34:43;101549.50;;;23.27;54.47
21290;BME280;10804;48.988;2.408;2022-07-05T00:37:11;101556.59;;;23.26;54.59
21290;BME280;10804;48.988;2.408;2022-07-05T00:39:40;101555.78;;;23.26;54.59
21290;BME280;10804;48.988;2.408;2022-07-05T00:42:07;101555.09;;;23.22;54.65
21290;BME280;10804;48.988;2.408;2022-07-05T00:44:36;101556.16;;;23.20;54.46
21290;BME280;10804;48.988;2.408;2022-07-05T00:47:06;101559.13;;;23.15;54.71
21290;BME280;10804;48.988;2.408;2022-07-05T00:49:34;101551.19;;;23.14;54.41
21290;BME280;10804;48.988;2.408;2022-07-05T00:52:03;101562.13;;;23.09;54.67
21290;BME280;10804;48.988;2.408;2022-07-05T00:54:33;101552.53;;;23.07;54.70
21290;BME280;10804;48.988;2.408;2022-07-05T00:57:03;101560.72;;;23.04;54.78
21290;BME280;10804;48.988;2.408;2022-07-05T00:59:31;101563.38;;;23.04;54.49
21290;BME280;10804;48.988;2.408;2022-07-05T01:01:59;101557.31;;;23.02;54.55
21290;BME280;10804;48.988;2.408;2022-07-05T01:04:27;101560.06;;;23.00;54.37
21290;BME280;10804;48.988;2.408;2022-07-05T01:06:55;101559.50;;;22.95;54.37
21290;BME280;10804;48.988;2.408;2022-07-05T01:09:23;101553.41;;;22.93;54.78
21290;BME280;10804;48.988;2.408;2022-07-05T01:11:51;101563.31;;;22.91;54.54
21290;BME280;10804;48.988;2.408;2022-07-05T01:14:22;101554.56;;;22.89;54.67
21290;BME280;10804;48.988;2.408;2022-07-05T01:16:52;101554.66;;;22.88;54.80
21290;BME280;10804;48.988;2.408;2022-07-05T01:19:20;101554.00;;;22.84;54.73
21290;BME280;10804;48.988;2.408;2022-07-05T01:21:49;101549.81;;;22.80;54.77
21290;BME280;10804;48.988;2.408;2022-07-05T01:24:18;101549.06;;;22.78;54.76
21290;BME280;10804;48.988;2.408;2022-07-05T01:26:47;101547.53;;;22.74;54.78
21290;BME280;10804;48.988;2.408;2022-07-05T01:29:16;101546.69;;;22.74;54.85
21290;BME280;10804;48.988;2.408;2022-07-05T01:31:43;101551.34;;;22.70;54.93
21290;BME280;10804;48.988;2.408;2022-07-05T01:34:12;101553.25;;;22.68;54.68
21290;BME280;10804;48.988;2.408;2022-07-05T01:36:39;101543.66;;;22.66;54.90
21290;BME280;10804;48.988;2.408;2022-07-05T01:39:07;101545.56;;;22.64;54.80
21290;BME280;10804;48.988;2.408;2022-07-05T01:41:36;101537.69;;;22.62;54.56
21290;BME280;10804;48.988;2.408;2022-07-05T01:44:04;101542.25;;;22.60;54.80
21290;BME280;10804;48.988;2.408;2022-07-05T01:46:33;101545.88;;;22.59;54.80
21290;BME280;10804;48.988;2.408;2022-07-05T01:49:04;101548.91;;;22.53;54.66
21290;BME280;10804;48.988;2.408;2022-07-05T01:51:34;101539.31;;;22.51;54.73
21290;BME280;10804;48.988;2.408;2022-07-05T01:54:05;101539.31;;;22.51;54.88
21290;BME280;10804;48.988;2.408;2022-07-05T01:56:33;101539.47;;;22.48;54.56
21290;BME280;10804;48.988;2.408;2022-07-05T01:59:02;101536.06;;;22.46;54.88
21290;BME280;10804;48.988;2.408;2022-07-05T02:01:34;101535.41;;;22.42;54.53
21290;BME280;10804;48.988;2.408;2022-07-05T02:04:03;101531.94;;;22.40;54.73
21290;BME280;10804;48.988;2.408;2022-07-05T02:06:31;101538.38;;;22.36;54.75
21290;BME280;10804;48.988;2.408;2022-07-05T02:08:59;101532.31;;;22.34;54.92
21290;BME280;10804;48.988;2.408;2022-07-05T02:11:28;101528.16;;;22.30;54.62
21290;BME280;10804;48.988;2.408;2022-07-05T02:13:57;101529.09;;;22.29;54.71
21290;BME280;10804;48.988;2.408;2022-07-05T02:16:29;101528.31;;;22.27;54.79
21290;BME280;10804;48.988;2.408;2022-07-05T02:18:56;101527.66;;;22.24;54.79
21290;BME280;10804;48.988;2.408;2022-07-05T02:21:25;101522.53;;;22.21;54.78
21290;BME280;10804;48.988;2.408;2022-07-05T02:23:54;101530.50;;;22.21;54.71
21290;BME280;10804;48.988;2.408;2022-07-05T02:26:25;101536.88;;;22.18;54.82
21290;BME280;10804;48.988;2.408;2022-07-05T02:28:52;101532.69;;;22.14;54.81
21290;BME280;10804;48.988;2.408;2022-07-05T02:31:20;101538.00;;;22.14;54.80
21290;BME280;10804;48.988;2.408;2022-07-05T02:33:53;101535.63;;;22.10;55.00
21290;BME280;10804;48.988;2.408;2022-07-05T02:36:23;101538.38;;;22.08;54.82
21290;BME280;10804;48.988;2.408;2022-07-05T02:38:51;101534.97;;;22.06;54.92
21290;BME280;10804;48.988;2.408;2022-07-05T02:41:18;101533.41;;;22.02;55.02
21290;BME280;10804;48.988;2.408;2022-07-05T02:43:49;101537.03;;;22.01;54.87
21290;BME280;10804;48.988;2.408;2022-07-05T02:46:19;101530.19;;;21.97;54.92
21290;BME280;10804;48.988;2.408;2022-07-05T02:48:47;101539.09;;;21.96;54.76
21290;BME280;10804;48.988;2.408;2022-07-05T02:51:16;101537.47;;;21.94;54.78
21290;BME280;10804;48.988;2.408;2022-07-05T02:53:45;101528.75;;;21.92;54.80
21290;BME280;10804;48.988;2.408;2022-07-05T02:56:14;101533.22;;;21.91;54.87
21290;BME280;10804;48.988;2.408;2022-07-05T02:58:41;101531.69;;;21.87;54.93
21290;BME280;10804;48.988;2.408;2022-07-05T03:01:10;101534.34;;;21.87;54.91
21290;BME280;10804;48.988;2.408;2022-07-05T03:03:39;101531.19;;;21.81;55.02
21290;BME280;10804;48.988;2.408;2022-07-05T03:06:08;101535.66;;;21.80;55.04
21290;BME280;10804;48.988;2.408;2022-07-05T03:08:38;101528.63;;;21.79;54.95
21290;BME280;10804;48.988;2.408;2022-07-05T03:11:07;101524.34;;;21.77;54.92
21290;BME280;10804;48.988;2.408;2022-07-05T03:13:36;101533.44;;;21.73;55.02
21290;BME280;10804;48.988;2.408;2022-07-05T03:16:04;101524.63;;;21.72;54.85
21290;BME280;10804;48.988;2.408;2022-07-05T03:18:31;101525.56;;;21.71;54.90
21290;BME280;10804;48.988;2.408;2022-07-05T03:20:59;101534.66;;;21.67;54.83
21290;BME280;10804;48.988;2.408;2022-07-05T03:23:31;101532.94;;;21.66;54.94
21290;BME280;10804;48.988;2.408;2022-07-05T03:25:59;101525.91;;;21.65;55.09
21290;BME280;10804;48.988;2.408;2022-07-05T03:28:27;101534.03;;;21.62;54.96
21290;BME280;10804;48.988;2.408;2022-07-05T03:30:57;101528.81;;;21.61;54.97
21290;BME280;10804;48.988;2.408;2022-07-05T03:33:26;101535.16;;;21.58;54.81
21290;BME280;10804;48.988;2.408;2022-07-05T03:35:54;101535.34;;;21.55;54.94
21290;BME280;10804;48.988;2.408;2022-07-05T03:38:21;101531.13;;;21.51;55.04
21290;BME280;10804;48.988;2.408;2022-07-05T03:40:49;101538.19;;;21.52;54.95
21290;BME280;10804;48.988;2.408;2022-07-05T03:43:19;101541.00;;;21.49;54.93
21290;BME280;10804;48.988;2.408;2022-07-05T03:45:46;101540.16;;;21.49;54.95
21290;BME280;10804;48.988;2.408;2022-07-05T03:48:16;101538.59;;;21.45;54.99
21290;BME280;10804;48.988;2.408;2022-07-05T03:50:44;101550.09;;;21.45;54.86
21290;BME280;10804;48.988;2.408;2022-07-05T03:53:12;101549.31;;;21.43;55.06
21290;BME280;10804;48.988;2.408;2022-07-05T03:55:39;101553.94;;;21.40;54.93
21290;BME280;10804;48.988;2.408;2022-07-05T03:58:07;101563.72;;;21.39;54.92
21290;BME280;10804;48.988;2.408;2022-07-05T04:00:36;101560.31;;;21.37;54.94
21290;BME280;10804;48.988;2.408;2022-07-05T04:03:07;101571.00;;;21.36;54.91
21290;BME280;10804;48.988;2.408;2022-07-05T04:05:36;101558.75;;;21.33;55.07
21290;BME280;10804;48.988;2.408;2022-07-05T04:08:04;101570.31;;;21.32;54.94
21290;BME280;10804;48.988;2.408;2022-07-05T04:10:39;101567.72;;;21.31;55.08
21290;BME280;10804;48.988;2.408;2022-07-05T04:13:06;101567.81;;;21.29;54.92
21290;BME280;10804;48.988;2.408;2022-07-05T04:15:35;101568.94;;;21.25;54.95
21290;BME280;10804;48.988;2.408;2022-07-05T04:18:04;101568.00;;;21.26;54.98
21290;BME280;10804;48.988;2.408;2022-07-05T04:20:36;101562.06;;;21.21;54.92
21290;BME280;10804;48.988;2.408;2022-07-05T04:23:05;101574.31;;;21.24;54.93
21290;BME280;10804;48.988;2.408;2022-07-05T04:25:32;101578.94;;;21.20;54.97
21290;BME280;10804;48.988;2.408;2022-07-05T04:28:13;101577.31;;;21.18;55.09
21290;BME280;10804;48.988;2.408;2022-07-05T04:30:43;101584.44;;;21.17;54.99
21290;BME280;10804;48.988;2.408;2022-07-05T04:33:13;101579.31;;;21.14;55.00
21290;BME280;10804;48.988;2.408;2022-07-05T04:35:44;101582.88;;;21.13;55.06
21290;BME280;10804;48.988;2.408;2022-07-05T04:38:11;101574.22;;;21.10;55.05
21290;BME280;10804;48.988;2.408;2022-07-05T04:40:41;101575.97;;;21.11;54.92
21290;BME280;10804;48.988;2.408;2022-07-05T04:43:09;101584.00;;;21.09;54.95
21290;BME280;10804;48.988;2.408;2022-07-05T04:45:36;101586.66;;;21.09;54.92
21290;BME280;10804;48.988;2.408;2022-07-05T04:48:06;101583.25;;;21.07;55.03
21290;BME280;10804;48.988;2.408;2022-07-05T04:50:35;101577.16;;;21.05;55.19
21290;BME280;10804;48.988;2.408;2022-07-05T04:53:04;101578.00;;;21.06;54.98
21290;BME280;10804;48.988;2.408;2022-07-05T04:55:31;101585.09;;;21.05;55.02
21290;BME280;10804;48.988;2.408;2022-07-05T04:57:59;101580.75;;;21.04;55.10
21290;BME280;10804;48.988;2.408;2022-07-05T05:00:26;101589.66;;;21.03;55.06
21290;BME280;10804;48.988;2.408;2022-07-05T05:02:54;101594.94;;;21.03;55.08
21290;BME280;10804;48.988;2.408;2022-07-05T05:05:23;101586.22;;;21.01;55.01
21290;BME280;10804;48.988;2.408;2022-07-05T05:07:50;101585.28;;;21.02;55.03
21290;BME280;10804;48.988;2.408;2022-07-05T05:10:17;101587.94;;;21.02;55.12
21290;BME280;10804;48.988;2.408;2022-07-05T05:12:45;101596.84;;;21.01;55.17
21290;BME280;10804;48.988;2.408;2022-07-05T05:15:12;101595.97;;;21.01;55.13
21290;BME280;10804;48.988;2.408;2022-07-05T05:17:40;101596.84;;;21.01;55.14
21290;BME280;10804;48.988;2.408;2022-07-05T05:20:11;101589.81;;;21.00;55.26
21290;BME280;10804;48.988;2.408;2022-07-05T05:22:40;101594.19;;;21.01;55.10
21290;BME280;10804;48.988;2.408;2022-07-05T05:25:09;101600.34;;;21.02;55.10
21290;BME280;10804;48.988;2.408;2022-07-05T05:27:40;101599.50;;;21.01;54.99
21290;BME280;10804;48.988;2.408;2022-07-05T05:30:09;101603.84;;;21.02;55.03
21290;BME280;10804;48.988;2.408;2022-07-05T05:32:36;101607.44;;;21.01;55.25
21290;BME280;10804;48.988;2.408;2022-07-05T05:35:05;101601.28;;;21.01;55.08
21290;BME280;10804;48.988;2.408;2022-07-05T05:37:46;101603.84;;;21.02;55.13
21290;BME280;10804;48.988;2.408;2022-07-05T05:40:14;101609.16;;;21.02;55.06
21290;BME280;10804;48.988;2.408;2022-07-05T05:42:41;101610.88;;;21.03;54.94
21290;BME280;10804;48.988;2.408;2022-07-05T05:45:10;101605.56;;;21.03;55.02
21290;BME280;10804;48.988;2.408;2022-07-05T05:47:45;101608.97;;;21.05;54.79
21290;BME280;10804;48.988;2.408;2022-07-05T05:50:13;101615.22;;;21.04;55.15
21290;BME280;10804;48.988;2.408;2022-07-05T05:52:41;101615.22;;;21.04;54.96
21290;BME280;10804;48.988;2.408;2022-07-05T05:55:10;101622.09;;;21.08;54.95
21290;BME280;10804;48.988;2.408;2022-07-05T05:57:37;101621.16;;;21.09;54.81
21290;BME280;10804;48.988;2.408;2022-07-05T06:00:06;101627.22;;;21.11;54.94
21290;BME280;10804;48.988;2.408;2022-07-05T06:02:40;101628.09;;;21.12;54.77
21290;BME280;10804;48.988;2.408;2022-07-05T06:05:08;101626.28;;;21.12;54.79
21290;BME280;10804;48.988;2.408;2022-07-05T06:07:44;101629.72;;;21.14;54.79
21290;BME280;10804;48.988;2.408;2022-07-05T06:10:16;101627.84;;;21.16;54.88
21290;BME280;10804;48.988;2.408;2022-07-05T06:12:44;101633.91;;;21.18;54.83
21290;BME280;10804;48.988;2.408;2022-07-05T06:15:11;101625.94;;;21.18;54.80
21290;BME280;10804;48.988;2.408;2022-07-05T06:17:38;101622.28;;;21.21;54.71
21290;BME280;10804;48.988;2.408;2022-07-05T06:20:07;101624.75;;;21.24;54.63
21290;BME280;10804;48.988;2.408;2022-07-05T06:22:35;101618.41;;;21.26;54.69
21290;BME280;10804;48.988;2.408;2022-07-05T06:25:03;101629.72;;;21.30;54.80
21290;BME280;10804;48.988;2.408;2022-07-05T06:27:33;101626.03;;;21.32;54.64
21290;BME280;10804;48.988;2.408;2022-07-05T06:30:05;101629.47;;;21.34;54.73
21290;BME280;10804;48.988;2.408;2022-07-05T06:32:33;101634.69;;;21.36;54.57
21290;BME280;10804;48.988;2.408;2022-07-05T06:35:00;101636.41;;;21.37;54.49
21290;BME280;10804;48.988;2.408;2022-07-05T06:37:28;101632.72;;;21.39;54.47
21290;BME280;10804;48.988;2.408;2022-07-05T06:40:07;101636.91;;;21.43;54.42
21290;BME280;10804;48.988;2.408;2022-07-05T06:42:37;101633.31;;;21.44;54.53
21290;BME280;10804;48.988;2.408;2022-07-05T06:45:05;101628.69;;;21.48;54.50
21290;BME280;10804;48.988;2.408;2022-07-05T06:47:33;101634.69;;;21.51;54.54
21290;BME280;10804;48.988;2.408;2022-07-05T06:50:00;101631.00;;;21.54;54.46
21290;BME280;10804;48.988;2.408;2022-07-05T06:52:28;101634.34;;;21.57;54.52
21290;BME280;10804;48.988;2.408;2022-07-05T06:54:56;101640.34;;;21.61;54.30
21290;BME280;10804;48.988;2.408;2022-07-05T06:57:23;101646.31;;;21.64;54.28
21290;BME280;10804;48.988;2.408;2022-07-05T06:59:52;101640.88;;;21.67;54.41
21290;BME280;10804;48.988;2.408;2022-07-05T07:02:20;101643.28;;;21.72;54.25
21290;BME280;10804;48.988;2.408;2022-07-05T07:04:48;101643.09;;;21.75;54.29
21290;BME280;10804;48.988;2.408;2022-07-05T07:07:15;101634.88;;;21.79;54.36
21290;BME280;10804;48.988;2.408;2022-07-05T07:10:01;101638.28;;;21.81;54.22
21290;BME280;10804;48.988;2.408;2022-07-05T07:12:30;101645.16;;;21.85;54.17
21290;BME280;10804;48.988;2.408;2022-07-05T07:14:58;101639.47;;;21.91;54.31
21290;BME280;10804;48.988;2.408;2022-07-05T07:17:26;101640.16;;;21.95;54.21
21290;BME280;10804;48.988;2.408;2022-07-05T07:19:53;101649.72;;;21.97;54.02
21290;BME280;10804;48.988;2.408;2022-07-05T07:22:20;101647.00;;;21.99;54.17
21290;BME280;10804;48.988;2.408;2022-07-05T07:24:48;101651.09;;;22.04;54.08
21290;BME280;10804;48.988;2.408;2022-07-05T07:27:15;101637.53;;;22.09;54.00
21290;BME280;10804;48.988;2.408;2022-07-05T07:29:43;101641.81;;;22.11;53.98
21290;BME280;10804;48.988;2.408;2022-07-05T07:32:12;101646.09;;;22.14;54.02
21290;BME280;10804;48.988;2.408;2022-07-05T07:34:39;101650.38;;;22.16;53.92
21290;BME280;10804;48.988;2.408;2022-07-05T07:37:07;101650.03;;;22.22;53.90
21290;BME280;10804;48.988;2.408;2022-07-05T07:39:40;101656.88;;;22.26;53.96
21290;BME280;10804;48.988;2.408;2022-07-05T07:42:07;101652.22;;;22.30;53.83
21290;BME280;10804;48.988;2.408;2022-07-05T07:44:35;101652.91;;;22.33;53.79
21290;BME280;10804;48.988;2.408;2022-07-05T07:47:03;101654.44;;;22.37;54.13
21290;BME280;10804;48.988;2.408;2022-07-05T07:49:31;101654.25;;;22.40;54.14
21290;BME280;10804;48.988;2.408;2022-07-05T07:51:59;101655.91;;;22.43;54.19
21290;BME280;10804;48.988;2.408;2022-07-05T07:54:26;101654.75;;;22.47;54.04
21290;BME280;10804;48.988;2.408;2022-07-05T07:56:53;101660.00;;;22.48;54.24
21290;BME280;10804;48.988;2.408;2022-07-05T07:59:21;101668.38;;;22.56;54.01
21290;BME280;10804;48.988;2.408;2022-07-05T08:01:48;101671.78;;;22.58;53.90
21290;BME280;10804;48.988;2.408;2022-07-05T08:04:15;101664.47;;;22.62;54.11
21290;BME280;10804;48.988;2.408;2022-07-05T08:06:44;101660.69;;;22.66;53.93
21290;BME280;10804;48.988;2.408;2022-07-05T08:09:12;101664.03;;;22.69;54.06
21290;BME280;10804;48.988;2.408;2022-07-05T08:11:39;101670.84;;;22.73;54.39
21290;BME280;10804;48.988;2.408;2022-07-05T08:14:07;101663.53;;;22.77;54.22
21290;BME280;10804;48.988;2.408;2022-07-05T08:16:34;101661.66;;;22.79;54.48
21290;BME280;10804;48.988;2.408;2022-07-05T08:19:02;101650.81;;;22.82;54.33
21290;BME280;10804;48.988;2.408;2022-07-05T08:21:48;101659.38;;;22.87;54.10
21290;BME280;10804;48.988;2.408;2022-07-05T08:24:15;101654.75;;;22.90;54.19
21290;BME280;10804;48.988;2.408;2022-07-05T08:26:43;101656.25;;;22.94;54.27
21290;BME280;10804;48.988;2.408;2022-07-05T08:29:12;101650.91;;;22.94;54.56
21290;BME280;10804;48.988;2.408;2022-07-05T08:31:42;101641.81;;;22.98;54.61
21290;BME280;10804;48.988;2.408;2022-07-05T08:34:10;101636.19;;;23.03;54.66
21290;BME280;10804;48.988;2.408;2022-07-05T08:36:38;101649.31;;;23.06;54.56
21290;BME280;10804;48.988;2.408;2022-07-05T08:39:09;101640.19;;;23.10;54.56
21290;BME280;10804;48.988;2.408;2022-07-05T08:41:38;101638.97;;;23.15;54.54
21290;BME280;10804;48.988;2.408;2022-07-05T08:44:05;101636.09;;;23.18;54.69
21290;BME280;10804;48.988;2.408;2022-07-05T08:46:36;101639.50;;;23.20;54.76
21290;BME280;10804;48.988;2.408;2022-07-05T08:49:04;101638.38;;;23.24;54.50
21290;BME280;10804;48.988;2.408;2022-07-05T08:51:33;101639.91;;;23.28;54.80
21290;BME280;10804;48.988;2.408;2022-07-05T08:54:01;101641.63;;;23.29;54.84
21290;BME280;10804;48.988;2.408;2022-07-05T08:56:31;101639.50;;;23.34;54.98
21290;BME280;10804;48.988;2.408;2022-07-05T08:59:00;101642.94;;;23.36;54.76
21290;BME280;10804;48.988;2.408;2022-07-05T09:01:27;101642.00;;;23.37;54.77
21290;BME280;10804;48.988;2.408;2022-07-05T09:04:00;101642.44;;;23.44;54.99
21290;BME280;10804;48.988;2.408;2022-07-05T09:06:29;101630.00;;;23.44;54.92
21290;BME280;10804;48.988;2.408;2022-07-05T09:08:59;101642.78;;;23.52;54.96
21290;BME280;10804;48.988;2.408;2022-07-05T09:11:30;101629.47;;;23.52;55.08
21290;BME280;10804;48.988;2.408;2022-07-05T09:14:02;101637.16;;;23.56;55.21
21290;BME280;10804;48.988;2.408;2022-07-05T09:16:30;101633.47;;;23.59;55.05
21290;BME280;10804;48.988;2.408;2022-07-05T09:19:05;101642.41;;;23.58;55.31
21290;BME280;10804;48.988;2.408;2022-07-05T09:21:33;101640.31;;;23.63;55.35
21290;BME280;10804;48.988;2.408;2022-07-05T09:24:02;101640.97;;;23.66;55.15
21290;BME280;10804;48.988;2.408;2022-07-05T09:26:35;101633.72;;;23.68;55.35
21290;BME280;10804;48.988;2.408;2022-07-05T09:29:05;101635.13;;;23.74;55.25
21290;BME280;10804;48.988;2.408;2022-07-05T09:31:34;101632.38;;;23.75;55.14
21290;BME280;10804;48.988;2.408;2022-07-05T09:34:07;101635.69;;;23.79;55.42
21290;BME280;10804;48.988;2.408;2022-07-05T09:36:51;101630.22;;;23.80;55.56
21290;BME280;10804;48.988;2.408;2022-07-05T09:39:34;101636.34;;;23.82;55.42
21290;BME280;10804;48.988;2.408;2022-07-05T09:42:15;101643.94;;;23.88;55.34
21290;BME280;10804;48.988;2.408;2022-07-05T09:44:47;101641.94;;;23.92;55.46
21290;BME280;10804;48.988;2.408;2022-07-05T09:47:16;101645.38;;;23.94;55.49
21290;BME280;10804;48.988;2.408;2022-07-05T09:49:46;101648.78;;;23.96;55.42
21290;BME280;10804;48.988;2.408;2022-07-05T09:52:26;101647.50;;;24.01;55.53
21290;BME280;10804;48.988;2.408;2022-07-05T09:55:01;101649.97;;;24.04;55.67
21290;BME280;10804;48.988;2.408;2022-07-05T09:57:31;101644.53;;;24.06;55.44
21290;BME280;10804;48.988;2.408;2022-07-05T09:59:58;101645.19;;;24.09;55.58
21290;BME280;10804;48.988;2.408;2022-07-05T10:02:37;101649.47;;;24.12;55.59
21290;BME280;10804;48.988;2.408;2022-07-05T10:05:08;101641.16;;;24.16;55.46
21290;BME280;10804;48.988;2.408;2022-07-05T10:07:36;101646.38;;;24.18;55.66
21290;BME280;10804;48.988;2.408;2022-07-05T10:10:05;101627.50;;;24.21;55.44
21290;BME280;10804;48.988;2.408;2022-07-05T10:12:36;101649.47;;;24.24;55.73
21290;BME280;10804;48.988;2.408;2022-07-05T10:15:05;101644.91;;;24.26;55.48
21290;BME280;10804;48.988;2.408;2022-07-05T10:17:36;101646.41;;;24.30;55.55
21290;BME280;10804;48.988;2.408;2022-07-05T10:20:05;101641.81;;;24.32;55.69
21290;BME280;10804;48.988;2.408;2022-07-05T10:22:36;101651.34;;;24.36;55.51
21290;BME280;10804;48.988;2.408;2022-07-05T10:25:05;101644.06;;;24.38;55.56
21290;BME280;10804;48.988;2.408;2022-07-05T10:27:33;101641.19;;;24.41;55.47
21290;BME280;10804;48.988;2.408;2022-07-05T10:30:04;101646.34;;;24.44;55.70
21290;BME280;10804;48.988;2.408;2022-07-05T10:32:33;101639.94;;;24.47;55.65
21290;BME280;10804;48.988;2.408;2022-07-05T10:35:01;101640.56;;;24.50;55.65
21290;BME280;10804;48.988;2.408;2022-07-05T10:37:31;101648.47;;;24.52;55.60
21290;BME280;10804;48.988;2.408;2022-07-05T10:40:02;101642.94;;;24.55;55.68
21290;BME280;10804;48.988;2.408;2022-07-05T10:42:35;101641.88;;;24.57;55.48
21290;BME280;10804;48.988;2.408;2022-07-05T10:45:08;101637.19;;;24.61;55.63
21290;BME280;10804;48.988;2.408;2022-07-05T10:48:12;101635.06;;;24.66;55.34
21290;BME280;10804;48.988;2.408;2022-07-05T10:50:48;101629.50;;;24.68;55.52
21290;BME280;10804;48.988;2.408;2022-07-05T10:53:16;101625.75;;;24.71;55.40
21290;BME280;10804;48.988;2.408;2022-07-05T10:56:10;101629.19;;;24.73;55.49
21290;BME280;10804;48.988;2.408;2022-07-05T10:58:40;101626.31;;;24.76;55.68
21290;BME280;10804;48.988;2.408;2022-07-05T11:01:36;101629.53;;;24.81;55.42
21290;BME280;10804;48.988;2.408;2022-07-05T11:04:15;101624.91;;;24.83;55.45
21290;BME280;10804;48.988;2.408;2022-07-05T11:06:45;101620.41;;;24.83;55.69
21290;BME280;10804;48.988;2.408;2022-07-05T11:09:17;101629.84;;;24.89;55.53
21290;BME280;10804;48.988;2.408;2022-07-05T11:11:45;101626.06;;;24.91;55.49
21290;BME280;10804;48.988;2.408;2022-07-05T11:14:32;101624.16;;;24.93;55.54
21290;BME280;10804;48.988;2.408;2022-07-05T11:17:11;101631.84;;;24.98;55.59
21290;BME280;10804;48.988;2.408;2022-07-05T11:20:16;101629.81;;;25.01;55.47
21290;BME280;10804;48.988;2.408;2022-07-05T11:23:10;101626.06;;;25.04;55.58
21290;BME280;10804;48.988;2.408;2022-07-05T11:25:44;101624.03;;;25.07;55.57
21290;BME280;10804;48.988;2.408;2022-07-05T11:28:21;101623.81;;;25.10;55.45
21290;BME280;10804;48.988;2.408;2022-07-05T11:30:56;101620.06;;;25.13;55.53
21290;BME280;10804;48.988;2.408;2022-07-05T11:33:36;101625.09;;;25.17;55.48
21290;BME280;10804;48.988;2.408;2022-07-05T11:36:05;101614.16;;;25.20;55.58
21290;BME280;10804;48.988;2.408;2022-07-05T11:38:34;101622.00;;;25.23;55.47
21290;BME280;10804;48.988;2.408;2022-07-05T11:41:22;101624.53;;;25.25;55.51
21290;BME280;10804;48.988;2.408;2022-07-05T11:43:55;101615.38;;;25.29;55.47
21290;BME280;10804;48.988;2.408;2022-07-05T11:46:26;101608.09;;;25.31;55.52
21290;BME280;10804;48.988;2.408;2022-07-05T11:48:55;101607.84;;;25.34;55.45
21290;BME280;10804;48.988;2.408;2022-07-05T11:51:23;101606.03;;;25.34;55.44
21290;BME280;10804;48.988;2.408;2022-07-05T11:53:50;101607.41;;;25.40;55.48
21290;BME280;10804;48.988;2.408;2022-07-05T11:56:18;101602.84;;;25.42;55.59
21290;BME280;10804;48.988;2.408;2022-07-05T11:58:45;101605.25;;;25.45;55.48
21290;BME280;10804;48.988;2.408;2022-07-05T12:01:13;101614.00;;;25.47;55.35
21290;BME280;10804;48.988;2.408;2022-07-05T12:03:52;101604.06;;;25.49;55.59
21290;BME280;10804;48.988;2.408;2022-07-05T12:06:19;101601.19;;;25.52;55.51
21290;BME280;10804;48.988;2.408;2022-07-05T12:08:47;101600.94;;;25.55;55.37
21290;BME280;10804;48.988;2.408;2022-07-05T12:11:15;101596.47;;;25.55;55.45
21290;BME280;10804;48.988;2.408;2022-07-05T12:14:00;101600.72;;;25.58;55.53
21290;BME280;10804;48.988;2.408;2022-07-05T12:16:27;101594.19;;;25.62;55.51
21290;BME280;10804;48.988;2.408;2022-07-05T12:18:56;101581.78;;;25.61;55.76
21290;BME280;10804;48.988;2.408;2022-07-05T12:21:26;101593.97;;;25.65;55.67
21290;BME280;10804;48.988;2.408;2022-07-05T12:23:54;101591.06;;;25.68;55.48
21290;BME280;10804;48.988;2.408;2022-07-05T12:26:22;101588.16;;;25.71;55.56
21290;BME280;10804;48.988;2.408;2022-07-05T12:28:50;101581.00;;;25.71;55.70
21290;BME280;10804;48.988;2.408;2022-07-05T12:31:19;101581.63;;;25.75;55.42
21290;BME280;10804;48.988;2.408;2022-07-05T12:33:47;101590.38;;;25.77;55.53
21290;BME280;10804;48.988;2.408;2022-07-05T12:36:19;101591.09;;;25.79;55.47
21290;BME280;10804;48.988;2.408;2022-07-05T12:38:46;101593.56;;;25.82;55.46
21290;BME280;10804;48.988;2.408;2022-07-05T12:41:21;101583.59;;;25.84;55.64
21290;BME280;10804;48.988;2.408;2022-07-05T12:43:52;101578.97;;;25.86;55.58
21290;BME280;10804;48.988;2.408;2022-07-05T12:46:21;101576.13;;;25.89;55.49
21290;BME280;10804;48.988;2.408;2022-07-05T12:49:01;101576.84;;;25.91;55.66
21290;BME280;10804;48.988;2.408;2022-07-05T12:51:35;101574.91;;;25.93;55.56
21290;BME280;10804;48.988;2.408;2022-07-05T12:54:03;101571.16;;;25.95;55.59
21290;BME280;10804;48.988;2.408;2022-07-05T12:56:49;101584.41;;;25.97;55.29
21290;BME280;10804;48.988;2.408;2022-07-05T12:59:35;101575.31;;;25.99;55.38
21290;BME280;10804;48.988;2.408;2022-07-05T13:02:03;101574.97;;;26.04;55.22
21290;BME280;10804;48.988;2.408;2022-07-05T13:04:31;101570.44;;;26.04;54.92